Aérodrome :
LOGIN :

S'inscrire | Disclaimer

   EN    FR    IT 

 










Légende :    VFR   VFR Marginal   IFR   IFR Intensif   IFR Très Intensif
Visi : 
Plafond : 
>= 8 km
>= 3000ft
5 à 8 km
1000 à 3000 ft
1500m à 5 km
500 à 1000 ft
800 à 1500m
200 à 500 ft
< 800m
< 200 ft
Symboles :   Orages  Brouillard  Fortes neiges  Fortes précipitations  Vent > 20 kt
SIGMETs :   Divers  Orages  Givrage  Turbulence  Onde Orograph.  Cendres Volcan.







- Altitude de l'aérodrome : 135 ft
- Code IATA : EDI
- Voir les cartes d'approche


EGPH - Edinburgh

DERNIER METAR :
  • 181220Z 05012KT CAVOK 11/08 Q1028

METARs EXPIRÉS :
  • 181150Z 05010KT 9999 FEW014 11/08 Q1028
  • 181120Z 05011KT 9000 FEW012 11/08 Q1028
  • 181050Z 07013KT 9999 FEW012 11/08 Q1028
  • 181020Z 07010KT 8000 SCT012 11/08 Q1029
  • 180950Z 06009KT 7000 BKN008 09/07 Q1029

TAF TAF EGPH
Valide du 18 à 12h jusqu'au 19 à 12h UTC


181056Z 1812/1912 06009KT 9999 FEW012
PROB40
TEMPO 1812/1815 8000 BKN012
TEMPO 1818/1909 8000
PROB30
TEMPO 1821/1909 4000 BR BKN005
ATIS : +44 131 339 2823
Pas de NOTAMs connus pour ce terrain.



MET'MAP, la Météo Aéronautique d'un coup d'oeil ! - Copyright ORBIFLY Décembre 2007 - Disclaimer

ORBIFLY MET'MAP TEAM :

Programmation & Développement : Alexandra Zaïnal
Conception & Développement : Baudouin d'Aumeries
Co-Programmation & Développement : Marc-Olivier Méhu
Soutien technique & logistique : Manuel Goepfert

Contact : metmap@orbifly.com




SOURCES & CREDITS :

   NOAA